Time;durP1;ratioP1;P1;durP2;ratioP2;P2;SDS_P1;SDS_P2;PMS_P1;PMS_P2;Temp;Humidity;BMP_temperature;BMP_pressure;BME280_temperature;BME280_humidity;BME280_pressure;Samples;Min_cycle;Max_cycle;Signal;HPM_P1;HPM_P2
2022/04/05 00:02:16;;;;;;;13.48;8.02;;;;;;;5.80;62.95;95026.88;5008064;28;20050;-59
2022/04/05 00:04:42;;;;;;;9.70;6.45;;;;;;;5.77;63.14;95028.75;5008258;28;20030;-60
2022/04/05 00:07:07;;;;;;;13.18;8.02;;;;;;;5.71;63.12;95028.13;5008053;28;20029;-61
2022/04/05 00:09:33;;;;;;;10.23;6.95;;;;;;;5.62;64.08;95027.69;5008716;28;20061;-59
2022/04/05 00:11:59;;;;;;;11.13;8.80;;;;;;;5.50;63.98;95021.41;5008641;28;20466;-56
2022/04/05 00:14:25;;;;;;;11.40;7.68;;;;;;;5.47;64.15;95024.06;5008057;28;20557;-57
2022/04/05 00:16:50;;;;;;;15.90;8.18;;;;;;;5.40;64.40;95027.81;5008174;28;20116;-58
2022/04/05 00:19:19;;;;;;;12.70;7.90;;;;;;;5.41;64.94;95025.19;5008462;28;20025;-58
2022/04/05 00:21:45;;;;;;;10.35;6.88;;;;;;;5.53;64.14;95027.19;5008419;28;20100;-61
2022/04/05 00:24:11;;;;;;;11.40;7.45;;;;;;;5.30;64.41;95006.91;5012628;28;20417;-60
2022/04/05 00:26:36;;;;;;;13.70;8.85;;;;;;;5.32;65.02;95021.28;5012108;28;20048;-60
2022/04/05 00:29:02;;;;;;;13.77;8.43;;;;;;;4.91;64.59;94959.94;5012323;28;20038;-59
2022/04/05 00:31:27;;;;;;;14.38;8.73;;;;;;;5.29;65.35;95020.56;5012220;28;20543;-59
2022/04/05 00:33:52;;;;;;;11.93;8.50;;;;;;;5.22;65.50;95020.00;5012181;28;20025;-60
2022/04/05 00:36:18;;;;;;;13.23;8.55;;;;;;;5.20;65.75;95009.03;5011844;28;20018;-58
2022/04/05 00:38:43;;;;;;;11.68;8.63;;;;;;;5.20;65.56;95011.56;5011587;28;20033;-60
2022/04/05 00:41:09;;;;;;;10.88;8.05;;;;;;;5.15;65.77;95006.66;5012011;28;20038;-63
2022/04/05 00:43:34;;;;;;;10.63;8.23;;;;;;;5.14;65.92;94999.03;5011925;28;20030;-61
2022/04/05 00:45:59;;;;;;;10.80;7.07;;;;;;;5.27;65.26;95004.47;5011840;28;20104;-58
2022/04/05 00:48:48;;;;;;;11.02;7.07;;;;;;;5.22;65.67;94993.63;5011677;28;20497;-58
2022/04/05 00:51:15;;;;;;;10.45;8.23;;;;;;;5.12;65.79;95011.06;5011309;28;20085;-59
2022/04/05 00:53:46;;;;;;;9.50;7.15;;;;;;;5.20;65.96;95003.06;5011670;28;20033;-62
2022/04/05 00:56:14;;;;;;;10.05;7.05;;;;;;;5.11;66.15;94999.16;5011934;28;20026;-64
2022/04/05 00:58:42;;;;;;;9.93;7.18;;;;;;;5.00;66.07;94984.31;5011705;28;20033;-60
2022/04/05 01:01:09;;;;;;;10.52;6.95;;;;;;;4.91;66.19;94965.06;5011626;28;20513;-58
2022/04/05 01:03:36;;;;;;;10.52;7.05;;;;;;;4.54;66.18;94910.38;5011103;28;20022;-58
2022/04/05 01:06:04;;;;;;;8.63;6.95;;;;;;;5.07;66.75;94989.97;5011671;28;20136;-62
2022/04/05 01:08:30;;;;;;;10.38;6.93;;;;;;;5.16;66.27;94992.13;5011577;28;20029;-59
2022/04/05 01:10:59;;;;;;;9.68;7.05;;;;;;;5.11;65.97;94987.22;5011318;28;20420;-58
2022/04/05 01:13:24;;;;;;;9.43;6.38;;;;;;;4.98;66.68;94978.41;5010116;28;20045;-61
2022/04/05 01:15:50;;;;;;;8.73;5.88;;;;;;;5.06;66.67;94986.56;5009377;28;20428;-61
2022/04/05 01:18:17;;;;;;;9.48;6.78;;;;;;;5.07;66.76;94982.31;5011328;28;20037;-59
2022/04/05 01:20:43;;;;;;;9.18;6.10;;;;;;;5.12;66.75;94985.50;5011412;28;20602;-60
2022/04/05 01:23:09;;;;;;;8.80;6.10;;;;;;;5.05;66.90;94978.97;5011436;28;20044;-62
2022/04/05 01:25:34;;;;;;;8.70;5.85;;;;;;;4.95;67.31;94991.31;5010948;28;20030;-59
2022/04/05 01:28:00;;;;;;;10.50;6.03;;;;;;;4.92;66.93;94981.19;5010427;28;20029;-62
2022/04/05 01:30:25;;;;;;;8.32;5.88;;;;;;;4.92;67.20;94971.84;5010999;28;20026;-61
2022/04/05 01:32:51;;;;;;;9.52;6.63;;;;;;;4.88;67.18;94972.84;5010946;28;20026;-60
2022/04/05 01:35:17;;;;;;;11.98;7.60;;;;;;;4.91;67.77;94998.28;5009618;28;20057;-58
2022/04/05 01:37:42;;;;;;;8.52;5.93;;;;;;;4.87;67.54;94986.53;5010782;28;20188;-62
2022/04/05 01:40:08;;;;;;;8.05;5.47;;;;;;;4.86;67.42;94989.16;5010480;28;20046;-60
2022/04/05 01:42:34;;;;;;;9.05;6.40;;;;;;;4.72;67.63;94952.22;5010743;28;20037;-59
2022/04/05 01:45:01;;;;;;;8.30;6.10;;;;;;;4.74;67.40;94970.03;5010917;28;20521;-60
2022/04/05 01:47:27;;;;;;;8.35;6.00;;;;;;;4.76;68.02;94981.84;5010460;28;20046;-61
2022/04/05 01:49:52;;;;;;;9.10;5.93;;;;;;;4.66;68.39;94979.75;5010556;28;20056;-59
2022/04/05 01:52:18;;;;;;;8.35;6.35;;;;;;;4.56;68.51;94981.84;5010615;28;20049;-55
2022/04/05 01:54:45;;;;;;;10.02;7.03;;;;;;;4.52;68.75;94972.63;5010764;28;20032;-59
2022/04/05 01:57:11;;;;;;;7.95;6.30;;;;;;;4.35;69.10;94950.31;5010462;28;20041;-59
2022/04/05 01:59:39;;;;;;;10.02;6.25;;;;;;;4.47;69.33;94982.19;5010365;28;20116;-59
2022/04/05 02:02:09;;;;;;;10.07;6.80;;;;;;;4.43;69.08;94971.28;5009996;28;20022;-61
2022/04/05 02:04:36;;;;;;;11.48;7.07;;;;;;;4.51;68.78;94971.78;5010300;28;20490;-60
2022/04/05 02:07:17;;;;;;;10.52;7.25;;;;;;;4.58;69.15;94957.06;5010580;28;20061;-60
2022/04/05 02:09:43;;;;;;;;;;;;;;;4.73;68.77;94974.31;5010839;28;20452;-65
2022/04/05 02:12:12;;;;;;;12.07;8.43;;;;;;;4.49;69.03;94954.88;5010184;28;20416;-61
2022/04/05 02:14:38;;;;;;;11.43;7.60;;;;;;;4.60;69.06;94953.53;5009678;28;20466;-60
2022/04/05 02:17:07;;;;;;;12.75;8.02;;;;;;;4.74;69.24;94963.19;5009939;28;20121;-60
2022/04/05 02:19:34;;;;;;;12.52;9.20;;;;;;;4.66;69.45;94964.41;5010226;28;20038;-60
2022/04/05 02:22:00;;;;;;;13.68;9.52;;;;;;;4.38;69.34;94915.28;5010166;28;20103;-60
2022/04/05 02:24:26;;;;;;;13.50;9.48;;;;;;;4.60;70.02;94958.63;5010179;28;20072;-62
2022/04/05 02:26:51;;;;;;;14.38;10.02;;;;;;;4.63;70.28;94954.31;5009577;28;20025;-59
2022/04/05 02:29:17;;;;;;;13.00;9.25;;;;;;;4.70;70.16;94948.06;5009927;28;20057;-59
2022/04/05 02:31:42;;;;;;;12.48;9.55;;;;;;;4.64;69.66;94917.66;5009900;28;20057;-61
2022/04/05 02:34:08;;;;;;;14.48;9.95;;;;;;;4.73;69.53;94935.16;5009895;28;20022;-60
2022/04/05 02:36:34;;;;;;;14.20;9.23;;;;;;;4.71;69.78;94944.63;5009749;28;20046;-59
2022/04/05 02:39:00;;;;;;;15.18;9.68;;;;;;;4.60;70.43;94938.22;5009270;28;20186;-59
2022/04/05 02:41:26;;;;;;;13.30;9.60;;;;;;;4.66;69.88;94944.81;5009655;28;20041;-61
2022/04/05 02:43:53;;;;;;;11.70;9.27;;;;;;;4.59;70.23;94940.81;5009957;28;20022;-60
2022/04/05 02:46:18;;;;;;;14.13;9.73;;;;;;;4.44;69.91;94914.19;5008869;28;20107;-59
2022/04/05 02:48:45;;;;;;;13.25;8.48;;;;;;;4.54;69.68;94933.38;5009521;28;20129;-59
2022/04/05 02:51:15;;;;;;;14.98;9.55;;;;;;;4.47;70.38;94926.00;5008832;28;20068;-60
2022/04/05 02:53:41;;;;;;;13.43;10.93;;;;;;;4.46;70.25;94927.75;5009537;28;20033;-60
2022/04/05 02:56:08;;;;;;;14.55;11.65;;;;;;;4.43;70.71;94932.97;5009663;28;20058;-58
2022/04/05 02:58:35;;;;;;;15.18;9.52;;;;;;;4.45;70.60;94943.13;5009574;28;20044;-59
2022/04/05 03:01:00;;;;;;;14.65;10.25;;;;;;;4.38;70.70;94943.38;5009333;28;20105;-59
2022/04/05 03:03:26;;;;;;;14.70;10.07;;;;;;;4.40;71.33;94933.09;5008851;28;20125;-58
2022/04/05 03:05:51;;;;;;;15.00;10.25;;;;;;;4.30;70.99;94924.97;5009486;28;20040;-59
2022/04/05 03:08:17;;;;;;;13.18;10.32;;;;;;;4.40;70.93;94935.66;5009216;28;20029;-61
2022/04/05 03:10:43;;;;;;;15.80;10.30;;;;;;;4.42;70.96;94939.78;5009545;28;20029;-58
2022/04/05 03:13:08;;;;;;;13.82;10.07;;;;;;;4.43;70.81;94930.41;5009127;28;20022;-61
2022/04/05 03:15:34;;;;;;;13.00;9.80;;;;;;;4.44;70.69;94937.16;5008469;28;20064;-60
2022/04/05 03:17:59;;;;;;;13.77;10.18;;;;;;;4.38;70.54;94932.34;5008986;28;20034;-59
2022/04/05 03:20:25;;;;;;;14.32;10.00;;;;;;;4.21;69.87;94910.00;5009223;28;20037;-64
2022/04/05 03:22:52;;;;;;;13.98;10.20;;;;;;;4.20;69.70;94927.06;4993672;28;20036;-63
2022/04/05 03:25:17;;;;;;;18.10;11.00;;;;;;;3.80;69.90;94864.00;4989376;28;20034;-60
2022/04/05 03:27:43;;;;;;;19.00;11.70;;;;;;;3.84;70.51;94898.72;4988873;28;20030;-58
2022/04/05 03:30:11;;;;;;;23.05;11.85;;;;;;;3.86;70.89;94923.25;4989338;28;20030;-57
2022/04/05 03:32:37;;;;;;;15.55;11.45;;;;;;;3.82;71.15;94924.28;4989165;28;20022;-58
2022/04/05 03:35:04;;;;;;;17.42;12.00;;;;;;;3.57;71.56;94901.41;4989158;28;20042;-60
2022/04/05 03:37:29;;;;;;;18.30;12.13;;;;;;;3.58;71.72;94897.16;4988905;28;20501;-59
2022/04/05 03:39:55;;;;;;;16.23;11.20;;;;;;;3.68;72.00;94929.06;4989170;28;20034;-59
2022/04/05 03:42:21;;;;;;;19.60;11.98;;;;;;;3.72;71.66;94924.66;4989286;28;20554;-60
2022/04/05 03:44:47;;;;;;;15.25;10.57;;;;;;;3.61;72.14;94927.63;4989168;28;20038;-59
2022/04/05 03:47:12;;;;;;;16.58;10.40;;;;;;;3.71;72.05;94926.41;5006406;28;20053;-62
2022/04/05 03:49:38;;;;;;;18.80;11.20;;;;;;;3.58;72.11;94912.44;5008360;28;20148;-60
2022/04/05 03:52:03;;;;;;;16.05;10.57;;;;;;;3.61;72.54;94930.19;5007846;28;20033;-59
2022/04/05 03:54:29;;;;;;;16.92;12.05;;;;;;;3.60;72.28;94924.25;4999577;28;20612;-60
2022/04/05 03:56:54;;;;;;;18.25;11.93;;;;;;;3.45;72.64;94915.44;4993062;28;20037;-59
2022/04/05 03:59:20;;;;;;;19.02;11.75;;;;;;;3.48;72.71;94925.53;4992511;28;20429;-60
2022/04/05 04:01:45;;;;;;;15.43;12.23;;;;;;;3.35;73.19;94913.28;4988135;28;20868;-59
2022/04/05 04:04:10;;;;;;;17.08;11.10;;;;;;;3.36;73.33;94920.03;5004421;28;20088;-60
2022/04/05 04:06:36;;;;;;;16.08;10.98;;;;;;;3.24;73.77;94886.47;5001664;28;20026;-58
2022/04/05 04:09:02;;;;;;;18.00;11.27;;;;;;;3.25;73.19;94872.03;5002994;28;20033;-60
2022/04/05 04:11:27;;;;;;;18.73;12.07;;;;;;;3.59;72.77;94917.50;4997234;28;20037;-58
2022/04/05 04:13:52;;;;;;;27.90;12.77;;;;;;;3.70;72.51;94927.28;5005018;28;20029;-57
2022/04/05 04:16:18;;;;;;;20.65;12.02;;;;;;;3.65;72.47;94918.97;5002297;28;20040;-58
2022/04/05 04:18:43;;;;;;;19.05;13.05;;;;;;;3.36;72.59;94877.56;5005004;28;20068;-58
2022/04/05 04:21:09;;;;;;;19.73;12.15;;;;;;;3.73;72.22;94934.00;4999165;28;20037;-63
2022/04/05 04:23:34;;;;;;;18.58;11.82;;;;;;;3.64;72.45;94936.00;5005011;28;20041;-59
2022/04/05 04:25:59;;;;;;;21.48;12.60;;;;;;;3.61;72.63;94940.38;4987160;28;20023;-59
2022/04/05 04:28:25;;;;;;;18.13;11.93;;;;;;;3.62;72.70;94942.88;4989597;28;20042;-64
2022/04/05 04:30:50;;;;;;;17.92;11.30;;;;;;;3.48;72.72;94919.59;5005846;28;20440;-59
2022/04/05 04:33:16;;;;;;;17.52;10.32;;;;;;;3.71;71.88;94936.59;5003803;28;20120;-58
2022/04/05 04:35:43;;;;;;;14.45;10.23;;;;;;;3.80;71.45;94945.63;4987598;28;20509;-58
2022/04/05 04:38:09;;;;;;;17.27;10.38;;;;;;;3.83;70.19;94938.66;4987979;28;20022;-58
2022/04/05 04:40:36;;;;;;;17.90;9.88;;;;;;;4.04;69.39;94948.97;4987684;28;20320;-59
2022/04/05 04:43:02;;;;;;;15.80;10.32;;;;;;;4.01;68.56;94944.78;4988690;28;20034;-59
2022/04/05 04:45:28;;;;;;;20.20;12.45;;;;;;;3.96;68.70;94944.16;4988475;28;20054;-58
2022/04/05 04:47:54;;;;;;;18.67;12.93;;;;;;;3.95;69.08;94945.06;4988361;28;20051;-57
2022/04/05 04:50:20;;;;;;;28.17;22.77;;;;;;;4.02;68.25;94945.66;4987828;28;20061;-61
2022/04/05 04:52:46;;;;;;;27.85;21.90;;;;;;;3.98;68.52;94933.88;4988227;28;20154;-59
2022/04/05 04:55:11;;;;;;;27.08;20.58;;;;;;;4.12;68.19;94941.84;4987880;28;20030;-59
2022/04/05 04:57:37;;;;;;;25.50;20.58;;;;;;;4.13;67.42;94945.22;5003908;28;20436;-61
2022/04/05 05:00:04;;;;;;;26.58;20.98;;;;;;;4.13;67.77;94947.75;5003832;28;20165;-58
2022/04/05 05:02:29;;;;;;;23.50;19.35;;;;;;;4.11;67.91;94949.56;5000027;28;20030;-57
2022/04/05 05:04:55;;;;;;;23.30;16.10;;;;;;;4.27;67.27;94944.69;5004416;28;20548;-62
2022/04/05 05:07:20;;;;;;;20.75;14.90;;;;;;;4.15;67.46;94930.66;5000045;28;20383;-61
2022/04/05 05:09:46;;;;;;;22.13;15.35;;;;;;;4.14;67.67;94940.06;5007686;28;20581;-62
2022/04/05 05:12:11;;;;;;;19.38;13.45;;;;;;;4.12;67.97;94952.03;5005702;28;20522;-58
2022/04/05 05:14:38;;;;;;;16.17;12.93;;;;;;;4.01;67.75;94921.00;5006661;28;20109;-58
2022/04/05 05:17:04;;;;;;;17.80;12.30;;;;;;;4.15;68.00;94946.81;5005760;28;20037;-61
2022/04/05 05:19:30;;;;;;;18.17;12.50;;;;;;;4.24;68.16;94955.84;5007872;28;20042;-58
2022/04/05 05:21:56;;;;;;;19.52;12.95;;;;;;;4.41;67.22;94953.47;5004076;28;20480;-60
2022/04/05 05:24:21;;;;;;;20.40;14.55;;;;;;;4.47;67.10;94949.81;5007773;28;20030;-59
2022/04/05 05:26:47;;;;;;;26.90;15.20;;;;;;;4.38;67.53;94962.97;5005624;28;20461;-59
2022/04/05 05:29:13;;;;;;;18.45;12.48;;;;;;;4.33;67.86;94959.75;5005822;28;20087;-57
2022/04/05 05:31:39;;;;;;;18.08;12.18;;;;;;;4.35;67.60;94953.69;5006840;28;20026;-59
2022/04/05 05:34:05;;;;;;;24.05;13.50;;;;;;;4.45;67.40;94971.22;5004248;28;20481;-58
2022/04/05 05:36:30;;;;;;;25.27;14.77;;;;;;;4.37;66.94;94974.06;5007687;28;20147;-58
2022/04/05 05:38:56;;;;;;;24.48;13.90;;;;;;;4.25;66.75;94962.63;5004661;28;20410;-62
2022/04/05 05:41:21;;;;;;;18.52;11.73;;;;;;;4.38;66.52;94966.34;5007308;28;20030;-57
2022/04/05 05:43:47;;;;;;;15.98;11.50;;;;;;;4.55;65.98;94975.06;5002136;28;20033;-58
2022/04/05 05:46:13;;;;;;;18.48;11.40;;;;;;;4.82;65.67;94962.91;5006997;28;20129;-57
2022/04/05 05:48:39;;;;;;;21.60;11.13;;;;;;;4.78;64.87;94926.41;5004179;28;20464;-58
2022/04/05 05:51:05;;;;;;;18.48;10.82;;;;;;;5.12;64.15;94949.72;5007020;28;20033;-58
2022/04/05 05:53:31;;;;;;;14.85;10.65;;;;;;;4.97;64.08;94925.66;5003730;28;20588;-60
2022/04/05 05:55:57;;;;;;;16.10;10.73;;;;;;;5.25;63.18;94929.56;5007568;28;20038;-57
2022/04/05 05:58:22;;;;;;;19.33;12.13;;;;;;;5.57;62.77;94963.13;5010655;28;20478;-58
2022/04/05 06:00:48;;;;;;;16.77;12.70;;;;;;;5.65;62.76;94964.44;5004151;28;20073;-61
2022/04/05 06:03:14;;;;;;;21.30;12.57;;;;;;;5.68;62.47;94945.56;4990313;28;20087;-59
2022/04/05 06:05:39;;;;;;;20.05;15.00;;;;;;;5.73;62.28;94946.19;4989543;28;20067;-58
2022/04/05 06:08:05;;;;;;;21.48;15.80;;;;;;;5.77;61.89;94921.28;4990693;28;20038;-60
2022/04/05 06:10:31;;;;;;;20.25;15.65;;;;;;;6.17;60.90;94953.59;4990645;28;20068;-58
2022/04/05 06:12:57;;;;;;;18.67;14.75;;;;;;;6.33;60.59;94947.75;4990536;28;20528;-57
2022/04/05 06:15:25;;;;;;;16.58;11.75;;;;;;;6.64;59.09;94949.69;4990396;28;20026;-59
2022/04/05 06:17:51;;;;;;;16.83;11.73;;;;;;;6.62;59.46;94934.38;4997227;28;20041;-60
2022/04/05 06:20:19;;;;;;;20.17;13.27;;;;;;;6.66;59.30;94936.78;4990042;28;20034;-63
2022/04/05 06:22:48;;;;;;;19.33;13.63;;;;;;;6.89;58.61;94953.59;4990317;28;20109;-61
2022/04/05 06:25:17;;;;;;;19.27;11.63;;;;;;;7.14;57.71;94937.81;4988789;28;20041;-59
2022/04/05 06:27:43;;;;;;;15.88;11.25;;;;;;;7.28;57.64;94944.78;4987017;28;20610;-60
2022/04/05 06:30:10;;;;;;;23.35;13.82;;;;;;;7.46;56.94;94941.31;4997664;28;20049;-62
2022/04/05 06:32:36;;;;;;;16.35;10.30;;;;;;;7.57;55.63;94945.03;4987712;28;20031;-59
2022/04/05 06:35:03;;;;;;;15.20;9.98;;;;;;;7.66;55.79;94936.88;4993032;28;20041;-62
2022/04/05 06:37:29;;;;;;;14.80;9.75;;;;;;;7.67;55.19;94925.66;5000945;28;20457;-62
2022/04/05 06:39:54;;;;;;;13.80;9.68;;;;;;;7.36;55.50;94884.50;4990399;28;20057;-57
2022/04/05 06:42:20;;;;;;;12.13;9.77;;;;;;;7.62;55.48;94928.47;5007893;28;20018;-56
2022/04/05 06:44:45;;;;;;;16.83;10.15;;;;;;;7.56;55.69;94931.38;5008837;28;20169;-58
2022/04/05 06:47:11;;;;;;;14.80;9.77;;;;;;;7.47;55.99;94907.00;5009066;28;20421;-61
2022/04/05 06:49:38;;;;;;;13.82;9.93;;;;;;;7.52;55.70;94888.81;4989036;28;20031;-60
2022/04/05 06:52:04;;;;;;;15.45;11.00;;;;;;;7.80;55.30;94925.84;4989406;28;20568;-63
2022/04/05 06:54:30;;;;;;;13.43;9.75;;;;;;;7.62;55.53;94930.22;4989904;28;20427;-59
2022/04/05 06:56:56;;;;;;;18.15;11.60;;;;;;;7.34;55.97;94901.69;4989754;28;20195;-65
2022/04/05 06:59:21;;;;;;;15.10;10.48;;;;;;;7.60;56.39;94929.47;4989985;28;20505;-61
2022/04/05 07:01:46;;;;;;;13.07;10.45;;;;;;;7.79;55.65;94930.16;4989267;28;20041;-61
2022/04/05 07:04:12;;;;;;;16.98;12.70;;;;;;;7.73;55.69;94931.31;4989156;28;20145;-57
2022/04/05 07:06:38;;;;;;;14.43;10.52;;;;;;;7.26;56.14;94864.53;4989401;28;20018;-60
2022/04/05 07:09:05;;;;;;;17.23;11.13;;;;;;;7.81;56.36;94933.47;4989111;28;20034;-61
2022/04/05 07:11:31;;;;;;;17.30;10.82;;;;;;;7.82;55.89;94930.00;4989330;28;20031;-60
2022/04/05 07:13:57;;;;;;;18.30;11.27;;;;;;;7.80;55.77;94925.84;4988157;28;20038;-57
2022/04/05 07:16:22;;;;;;;13.80;11.20;;;;;;;7.55;55.90;94878.41;4988664;28;20026;-59
2022/04/05 07:18:49;;;;;;;15.68;10.38;;;;;;;7.75;55.63;94897.03;4989072;28;20120;-57
2022/04/05 07:21:15;;;;;;;14.02;10.05;;;;;;;7.84;55.72;94910.19;4989174;28;20096;-58
2022/04/05 07:23:41;;;;;;;18.85;10.73;;;;;;;7.95;55.65;94924.19;4988977;28;20129;-58
2022/04/05 07:26:07;;;;;;;14.10;10.63;;;;;;;8.19;55.04;94916.91;4988782;28;20034;-58
2022/04/05 07:28:33;;;;;;;12.85;9.70;;;;;;;8.08;54.16;94889.22;4989306;28;20022;-57
2022/04/05 07:30:58;;;;;;;16.23;9.98;;;;;;;8.29;53.88;94900.88;4989085;28;20434;-58
2022/04/05 07:33:24;;;;;;;13.90;10.13;;;;;;;8.41;54.03;94914.78;4988425;28;20489;-57
2022/04/05 07:35:50;;;;;;;16.60;10.80;;;;;;;8.58;53.60;94919.00;4989096;28;20493;-58
2022/04/05 07:38:17;;;;;;;14.68;9.13;;;;;;;8.57;53.53;94914.75;4988342;28;20177;-59
2022/04/05 07:40:48;;;;;;;13.30;9.43;;;;;;;8.21;53.90;94876.53;4987696;28;20142;-61
2022/04/05 07:43:20;;;;;;;16.77;10.20;;;;;;;8.56;53.26;94912.28;4988646;28;20414;-60
2022/04/05 07:45:49;;;;;;;19.13;12.88;;;;;;;8.56;53.81;94915.69;4988599;28;20042;-58
2022/04/05 07:48:19;;;;;;;13.63;10.70;;;;;;;8.59;53.56;94912.97;4988557;28;20030;-59
2022/04/05 07:50:45;;;;;;;16.08;11.52;;;;;;;8.64;53.17;94898.09;4988570;28;20490;-59
2022/04/05 07:53:11;;;;;;;16.38;11.70;;;;;;;8.74;53.10;94900.97;4988785;28;20034;-57
2022/04/05 07:55:39;;;;;;;15.80;12.02;;;;;;;8.94;53.12;94917.00;4988658;28;20026;-55
2022/04/05 07:58:05;;;;;;;17.55;11.88;;;;;;;9.11;52.13;94906.53;4988392;28;20525;-60
2022/04/05 08:00:31;;;;;;;17.65;11.55;;;;;;;9.33;52.22;94906.09;4988291;28;20442;-59
2022/04/05 08:02:57;;;;;;;16.75;11.20;;;;;;;9.55;50.89;94915.09;4982666;28;20041;-57
2022/04/05 08:05:23;;;;;;;16.92;11.25;;;;;;;9.63;51.06;94912.88;5006188;28;20030;-58
2022/04/05 08:07:49;;;;;;;20.02;12.25;;;;;;;9.64;50.15;94904.25;5007316;28;20041;-57
2022/04/05 08:10:15;;;;;;;16.58;12.23;;;;;;;9.65;50.05;94907.63;5007367;28;20033;-57
2022/04/05 08:12:45;;;;;;;13.63;10.63;;;;;;;9.63;50.47;94904.34;5007921;28;20090;-57
2022/04/05 08:15:12;;;;;;;15.50;10.55;;;;;;;9.59;49.59;94898.53;5005478;28;20096;-56
2022/04/05 08:17:37;;;;;;;15.43;10.63;;;;;;;9.48;49.32;94885.50;5006772;28;20036;-57
2022/04/05 08:20:05;;;;;;;17.10;11.25;;;;;;;9.54;50.17;94900.56;5008112;28;20109;-57
2022/04/05 08:22:30;;;;;;;19.77;12.25;;;;;;;9.63;50.06;94902.56;5007851;28;20328;-57
2022/04/05 08:24:56;;;;;;;16.80;12.43;;;;;;;9.62;49.09;94885.47;5007643;28;20041;-62
2022/04/05 08:27:21;;;;;;;16.30;11.32;;;;;;;9.77;49.00;94886.25;5007169;28;20109;-58
2022/04/05 08:29:47;;;;;;;15.13;10.77;;;;;;;9.68;48.42;94874.81;5007689;28;20026;-58
2022/04/05 08:32:12;;;;;;;21.33;12.30;;;;;;;9.60;49.02;94866.72;5007441;28;20034;-57
2022/04/05 08:34:41;;;;;;;15.30;11.25;;;;;;;9.77;48.47;94862.28;4990658;28;20030;-58
2022/04/05 08:37:08;;;;;;;23.30;11.88;;;;;;;10.00;48.01;94855.69;4988465;28;20092;-58
2022/04/05 08:39:34;;;;;;;13.30;10.70;;;;;;;9.89;47.47;94822.88;4987589;28;20046;-58
2022/04/05 08:42:00;;;;;;;14.90;10.60;;;;;;;9.87;46.87;94822.13;4988262;28;20458;-58
2022/04/05 08:44:28;;;;;;;18.67;12.00;;;;;;;10.23;46.82;94849.06;4990748;28;20050;-57
2022/04/05 08:46:54;;;;;;;14.15;9.57;;;;;;;10.27;45.15;94819.59;4991475;28;20046;-58
2022/04/05 08:49:20;;;;;;;11.98;9.50;;;;;;;10.59;44.69;94860.50;4991625;28;20717;-55
2022/04/05 08:51:46;;;;;;;20.23;10.88;;;;;;;10.53;44.67;94848.06;4991389;28;20030;-58
2022/04/05 08:54:11;;;;;;;17.88;10.60;;;;;;;10.29;45.12;94807.44;4991973;28;20057;-58
2022/04/05 08:56:37;;;;;;;15.25;9.73;;;;;;;10.80;44.49;94851.34;4990176;28;20458;-61
2022/04/05 08:59:02;;;;;;;15.18;10.65;;;;;;;10.91;44.80;94842.91;4992308;28;20026;-58
2022/04/05 09:01:29;;;;;;;15.70;10.75;;;;;;;11.11;43.32;94843.31;4992055;28;20037;-58
2022/04/05 09:03:56;;;;;;;15.32;10.60;;;;;;;11.13;43.44;94829.38;4990901;28;20038;-59
2022/04/05 09:06:31;;;;;;;15.07;10.43;;;;;;;11.11;42.80;94838.97;4992597;28;20031;-65
2022/04/05 09:09:14;;;;;;;17.58;11.40;;;;;;;11.00;42.43;94833.72;4992235;28;20022;-59
2022/04/05 09:12:15;;;;;;;10.30;8.52;;;;;;;11.22;40.87;94836.50;4992605;28;20061;-60
2022/04/05 09:14:43;;;;;;;17.50;12.85;;;;;;;14.40;37.09;94810.31;4991722;28;20116;-61
2022/04/05 09:17:10;;;;;;;14.48;10.77;;;;;;;17.21;31.10;94806.88;4999041;28;20497;-55
2022/04/05 09:19:38;;;;;;;17.90;11.25;;;;;;;19.60;27.40;94796.78;5011074;28;20541;-61
2022/04/05 09:22:04;;;;;;;13.95;10.40;;;;;;;21.39;23.44;94776.13;5011746;28;20026;-64
2022/04/05 09:24:37;;;;;;;14.23;10.82;;;;;;;22.41;22.08;94788.44;5010881;28;20068;-60
2022/04/05 09:27:04;;;;;;;17.58;10.60;;;;;;;24.11;20.07;94790.50;5010496;28;20097;-59
2022/04/05 09:29:49;;;;;;;15.05;10.18;;;;;;;24.78;18.94;94791.19;5010132;28;20042;-58
2022/04/05 09:32:42;;;;;;;12.35;9.13;;;;;;;25.12;17.93;94789.59;5010010;28;20042;-59
2022/04/05 09:35:08;;;;;;;8.23;7.15;;;;;;;25.06;17.56;94771.94;4990298;28;20026;-59
2022/04/05 09:37:38;;;;;;;10.30;7.30;;;;;;;26.84;16.05;94772.00;4990416;28;20092;-59
2022/04/05 09:40:31;;;;;;;9.10;7.40;;;;;;;27.67;14.46;94782.09;4990140;28;20375;-60
2022/04/05 09:43:07;;;;;;;11.60;7.53;;;;;;;29.58;13.02;94777.81;4990553;28;20038;-59
2022/04/05 09:45:53;;;;;;;10.20;6.80;;;;;;;30.75;12.17;94776.75;4990424;28;20457;-58
2022/04/05 09:48:21;;;;;;;10.63;7.22;;;;;;;31.76;11.30;94771.34;5005384;28;20042;-59
2022/04/05 09:51:09;;;;;;;9.25;7.43;;;;;;;31.85;11.37;94771.81;4989899;28;20498;-60
2022/04/05 09:53:40;;;;;;;9.77;7.38;;;;;;;31.86;11.00;94768.91;4990040;28;20387;-60
2022/04/05 09:56:09;;;;;;;11.82;7.70;;;;;;;30.42;12.38;94768.22;4989229;28;20044;-60
2022/04/05 09:58:35;;;;;;;9.88;7.88;;;;;;;32.80;10.59;94769.59;4990843;28;20217;-58
2022/04/05 10:01:08;;;;;;;8.02;6.50;;;;;;;33.91;9.78;94761.84;4988987;28;20030;-58
2022/04/05 10:03:37;;;;;;;7.85;7.05;;;;;;;34.84;9.71;94751.03;5000352;28;20478;-59
2022/04/05 10:06:03;;;;;;;10.30;6.30;;;;;;;34.88;9.70;94687.06;5006384;28;20053;-59
2022/04/05 10:08:32;;;;;;;6.97;6.05;;;;;;;33.66;9.90;94752.41;4999789;28;20049;-62
2022/04/05 10:10:58;;;;;;;12.40;8.90;;;;;;;33.90;10.05;94706.75;5007196;28;20044;-60
2022/04/05 10:13:24;;;;;;;9.48;6.93;;;;;;;35.49;8.55;94740.25;5004209;28;20389;-60
2022/04/05 10:15:51;;;;;;;10.05;6.60;;;;;;;36.31;8.57;94743.31;5002596;28;20038;-61
2022/04/05 10:18:20;;;;;;;8.23;6.78;;;;;;;36.17;8.32;94701.91;4999994;28;20236;-62
2022/04/05 10:20:50;;;;;;;10.70;7.10;;;;;;;35.15;9.16;94735.19;5006507;28;21020;-63
2022/04/05 10:23:22;;;;;;;14.13;6.63;;;;;;;34.92;8.91;94739.88;5000847;28;20055;-60
2022/04/05 10:25:50;;;;;;;8.43;6.97;;;;;;;34.32;9.61;94728.34;5005220;28;20037;-61
2022/04/05 10:28:20;;;;;;;7.85;6.75;;;;;;;33.68;9.69;94724.38;5001153;28;20042;-59
2022/04/05 10:31:10;;;;;;;10.30;6.70;;;;;;;35.85;9.03;94719.78;5001337;28;20085;-61
2022/04/05 10:33:49;;;;;;;10.65;6.25;;;;;;;36.42;8.33;94718.09;4997884;28;20068;-62
2022/04/05 10:36:22;;;;;;;13.95;7.70;;;;;;;34.18;9.30;94697.69;5006202;28;20026;-59
2022/04/05 10:39:16;;;;;;;10.10;8.27;;;;;;;33.97;9.39;94708.16;5001342;28;20030;-58
2022/04/05 10:42:12;;;;;;;9.45;7.50;;;;;;;34.86;9.33;94702.59;5006119;28;20359;-60
2022/04/05 10:44:39;;;;;;;7.03;5.93;;;;;;;36.41;8.39;94689.63;5002256;28;20037;-59
2022/04/05 10:47:06;;;;;;;8.23;6.32;;;;;;;36.60;8.52;94700.66;5004523;28;20056;-62
2022/04/05 10:49:54;;;;;;;10.02;7.30;;;;;;;36.47;8.25;94701.19;5001466;28;20042;-60
2022/04/05 10:52:27;;;;;;;9.38;6.45;;;;;;;36.31;7.75;94697.66;5005723;28;20025;-61
2022/04/05 10:55:04;;;;;;;8.50;6.55;;;;;;;34.37;9.12;94695.47;5003526;28;20034;-60
2022/04/05 10:57:35;;;;;;;9.40;6.82;;;;;;;35.62;8.96;94693.41;5004758;28;20402;-60
2022/04/05 11:00:12;;;;;;;8.10;7.28;;;;;;;36.32;8.46;94685.03;5003039;28;20095;-59
2022/04/05 11:03:02;;;;;;;9.82;5.97;;;;;;;35.27;9.13;94647.41;5004812;28;20413;-59
2022/04/05 11:05:41;;;;;;;8.23;6.13;;;;;;;36.50;8.10;94675.66;5000414;28;20038;-60
2022/04/05 11:08:11;;;;;;;13.45;7.95;;;;;;;36.54;8.15;94676.75;5000310;28;20030;-61
2022/04/05 11:10:37;;;;;;;7.20;6.35;;;;;;;35.75;8.47;94667.97;5001914;28;20049;-60
2022/04/05 11:13:06;;;;;;;8.23;6.47;;;;;;;36.58;8.00;94661.69;5005517;28;20034;-60
2022/04/05 11:15:58;;;;;;;7.80;6.65;;;;;;;34.83;9.16;94646.84;5001798;28;20135;-62
2022/04/05 11:18:29;;;;;;;9.32;6.45;;;;;;;36.27;8.27;94632.16;5001741;28;20041;-60
2022/04/05 11:20:57;;;;;;;7.38;5.88;;;;;;;36.77;8.55;94652.03;5003152;28;20343;-59
2022/04/05 11:23:51;;;;;;;11.27;6.75;;;;;;;35.65;8.59;94656.16;5004253;28;20022;-63
2022/04/05 11:26:29;;;;;;;8.40;7.00;;;;;;;34.97;9.05;94656.84;4999459;28;20521;-61
2022/04/05 11:28:56;;;;;;;11.75;6.90;;;;;;;35.47;9.14;94645.88;5005241;28;20048;-65
2022/04/05 11:31:35;;;;;;;10.13;7.20;;;;;;;33.04;10.25;94644.72;5002211;28;20566;-65
2022/04/05 11:34:03;;;;;;;9.07;6.32;;;;;;;33.30;10.18;94640.56;5002552;28;20037;-60